sensor_id;sensor_type;location;lat;lon;timestamp;P1;durP1;ratioP1;P2;durP2;ratioP2
65636;SDS011;52327;42.622;23.316;2023-03-03T00:01:29;0.75;;;0.70;;
65636;SDS011;52327;42.622;23.316;2023-03-03T00:03:57;2.90;;;1.30;;
65636;SDS011;52327;42.622;23.316;2023-03-03T00:06:22;1.27;;;0.60;;
65636;SDS011;52327;42.622;23.316;2023-03-03T00:08:49;1.35;;;1.05;;
65636;SDS011;52327;42.622;23.316;2023-03-03T00:11:15;0.95;;;0.85;;
65636;SDS011;52327;42.622;23.316;2023-03-03T00:13:47;0.70;;;0.70;;
65636;SDS011;52327;42.622;23.316;2023-03-03T00:18:52;1.27;;;1.17;;
65636;SDS011;52327;42.622;23.316;2023-03-03T00:23:50;1.35;;;0.90;;
65636;SDS011;52327;42.622;23.316;2023-03-03T00:26:21;0.70;;;0.70;;
65636;SDS011;52327;42.622;23.316;2023-03-03T00:28:48;1.88;;;1.33;;
65636;SDS011;52327;42.622;23.316;2023-03-03T00:31:48;0.65;;;0.65;;
65636;SDS011;52327;42.622;23.316;2023-03-03T00:34:25;2.60;;;1.20;;
65636;SDS011;52327;42.622;23.316;2023-03-03T00:36:53;3.53;;;2.22;;
65636;SDS011;52327;42.622;23.316;2023-03-03T00:39:28;1.33;;;0.82;;
65636;SDS011;52327;42.622;23.316;2023-03-03T00:41:55;2.95;;;1.00;;
65636;SDS011;52327;42.622;23.316;2023-03-03T00:47:24;1.67;;;1.05;;
65636;SDS011;52327;42.622;23.316;2023-03-03T00:52:35;4.28;;;1.05;;
65636;SDS011;52327;42.622;23.316;2023-03-03T00:55:02;2.83;;;1.58;;
65636;SDS011;52327;42.622;23.316;2023-03-03T00:57:28;2.45;;;0.95;;
65636;SDS011;52327;42.622;23.316;2023-03-03T00:59:54;1.52;;;1.02;;
65636;SDS011;52327;42.622;23.316;2023-03-03T01:02:19;2.40;;;1.35;;
65636;SDS011;52327;42.622;23.316;2023-03-03T01:04:47;0.98;;;0.85;;
65636;SDS011;52327;42.622;23.316;2023-03-03T01:07:16;1.15;;;1.00;;
65636;SDS011;52327;42.622;23.316;2023-03-03T01:09:42;0.95;;;0.90;;
65636;SDS011;52327;42.622;23.316;2023-03-03T01:12:08;3.17;;;1.33;;
65636;SDS011;52327;42.622;23.316;2023-03-03T01:14:35;2.42;;;1.77;;
65636;SDS011;52327;42.622;23.316;2023-03-03T01:17:01;3.47;;;1.40;;
65636;SDS011;52327;42.622;23.316;2023-03-03T01:19:27;2.15;;;0.70;;
65636;SDS011;52327;42.622;23.316;2023-03-03T01:21:52;1.65;;;1.30;;
65636;SDS011;52327;42.622;23.316;2023-03-03T01:24:18;1.35;;;1.23;;
65636;SDS011;52327;42.622;23.316;2023-03-03T01:26:43;1.65;;;1.17;;
65636;SDS011;52327;42.622;23.316;2023-03-03T01:29:08;2.33;;;1.33;;
65636;SDS011;52327;42.622;23.316;2023-03-03T01:31:34;2.00;;;1.27;;
65636;SDS011;52327;42.622;23.316;2023-03-03T01:34:00;3.38;;;1.55;;
65636;SDS011;52327;42.622;23.316;2023-03-03T01:36:26;1.65;;;1.05;;
65636;SDS011;52327;42.622;23.316;2023-03-03T01:38:52;1.70;;;0.88;;
65636;SDS011;52327;42.622;23.316;2023-03-03T01:41:18;2.47;;;1.60;;
65636;SDS011;52327;42.622;23.316;2023-03-03T01:43:44;2.00;;;1.35;;
65636;SDS011;52327;42.622;23.316;2023-03-03T01:46:20;2.88;;;1.80;;
65636;SDS011;52327;42.622;23.316;2023-03-03T01:48:57;2.83;;;1.52;;
65636;SDS011;52327;42.622;23.316;2023-03-03T01:51:28;1.08;;;0.82;;
65636;SDS011;52327;42.622;23.316;2023-03-03T01:54:06;1.70;;;1.55;;
65636;SDS011;52327;42.622;23.316;2023-03-03T01:56:38;1.42;;;1.13;;
65636;SDS011;52327;42.622;23.316;2023-03-03T01:59:08;2.42;;;1.27;;
65636;SDS011;52327;42.622;23.316;2023-03-03T02:01:38;2.60;;;2.30;;
65636;SDS011;52327;42.622;23.316;2023-03-03T02:04:04;3.03;;;1.60;;
65636;SDS011;52327;42.622;23.316;2023-03-03T02:06:32;4.00;;;1.90;;
65636;SDS011;52327;42.622;23.316;2023-03-03T02:11:48;1.02;;;0.73;;
65636;SDS011;52327;42.622;23.316;2023-03-03T02:14:16;0.90;;;0.90;;
65636;SDS011;52327;42.622;23.316;2023-03-03T02:16:42;1.77;;;1.42;;
65636;SDS011;52327;42.622;23.316;2023-03-03T02:19:10;1.40;;;1.30;;
65636;SDS011;52327;42.622;23.316;2023-03-03T02:21:43;3.40;;;1.83;;
65636;SDS011;52327;42.622;23.316;2023-03-03T02:24:17;2.72;;;1.25;;
65636;SDS011;52327;42.622;23.316;2023-03-03T02:26:52;1.73;;;1.52;;
65636;SDS011;52327;42.622;23.316;2023-03-03T02:29:18;1.02;;;0.88;;
65636;SDS011;52327;42.622;23.316;2023-03-03T02:31:44;0.88;;;0.82;;
65636;SDS011;52327;42.622;23.316;2023-03-03T02:34:09;1.00;;;0.90;;
65636;SDS011;52327;42.622;23.316;2023-03-03T02:36:36;1.17;;;0.88;;
65636;SDS011;52327;42.622;23.316;2023-03-03T02:39:07;0.82;;;0.73;;
65636;SDS011;52327;42.622;23.316;2023-03-03T02:44:24;1.40;;;0.82;;
65636;SDS011;52327;42.622;23.316;2023-03-03T02:46:51;3.40;;;0.77;;
65636;SDS011;52327;42.622;23.316;2023-03-03T02:49:19;1.17;;;0.90;;
65636;SDS011;52327;42.622;23.316;2023-03-03T02:51:48;2.05;;;1.77;;
65636;SDS011;52327;42.622;23.316;2023-03-03T02:54:15;3.65;;;1.58;;
65636;SDS011;52327;42.622;23.316;2023-03-03T02:56:42;3.47;;;1.75;;
65636;SDS011;52327;42.622;23.316;2023-03-03T02:59:08;0.95;;;0.90;;
65636;SDS011;52327;42.622;23.316;2023-03-03T03:01:34;4.03;;;2.17;;
65636;SDS011;52327;42.622;23.316;2023-03-03T03:04:04;1.52;;;0.98;;
65636;SDS011;52327;42.622;23.316;2023-03-03T03:06:33;2.60;;;1.90;;
65636;SDS011;52327;42.622;23.316;2023-03-03T03:08:58;2.22;;;1.08;;
65636;SDS011;52327;42.622;23.316;2023-03-03T03:11:24;3.22;;;1.80;;
65636;SDS011;52327;42.622;23.316;2023-03-03T03:13:50;2.53;;;1.38;;
65636;SDS011;52327;42.622;23.316;2023-03-03T03:16:16;1.85;;;1.10;;
65636;SDS011;52327;42.622;23.316;2023-03-03T03:18:41;1.83;;;1.20;;
65636;SDS011;52327;42.622;23.316;2023-03-03T03:21:07;1.27;;;1.20;;
65636;SDS011;52327;42.622;23.316;2023-03-03T03:23:34;1.38;;;1.05;;
65636;SDS011;52327;42.622;23.316;2023-03-03T03:26:00;1.40;;;1.30;;
65636;SDS011;52327;42.622;23.316;2023-03-03T03:28:26;1.63;;;1.17;;
65636;SDS011;52327;42.622;23.316;2023-03-03T03:30:51;3.08;;;1.13;;
65636;SDS011;52327;42.622;23.316;2023-03-03T03:33:17;1.92;;;1.40;;
65636;SDS011;52327;42.622;23.316;2023-03-03T03:35:42;1.85;;;1.25;;
65636;SDS011;52327;42.622;23.316;2023-03-03T03:38:11;3.40;;;1.52;;
65636;SDS011;52327;42.622;23.316;2023-03-03T03:40:37;4.28;;;2.22;;
65636;SDS011;52327;42.622;23.316;2023-03-03T03:43:03;2.00;;;1.05;;
65636;SDS011;52327;42.622;23.316;2023-03-03T03:45:28;1.52;;;1.27;;
65636;SDS011;52327;42.622;23.316;2023-03-03T03:47:54;2.35;;;1.20;;
65636;SDS011;52327;42.622;23.316;2023-03-03T03:50:19;0.77;;;0.77;;
65636;SDS011;52327;42.622;23.316;2023-03-03T03:52:45;1.65;;;1.20;;
65636;SDS011;52327;42.622;23.316;2023-03-03T03:55:10;2.25;;;1.08;;
65636;SDS011;52327;42.622;23.316;2023-03-03T03:57:36;2.03;;;1.00;;
65636;SDS011;52327;42.622;23.316;2023-03-03T04:00:02;1.58;;;1.00;;
65636;SDS011;52327;42.622;23.316;2023-03-03T04:02:29;0.90;;;0.88;;
65636;SDS011;52327;42.622;23.316;2023-03-03T04:04:54;1.13;;;0.80;;
65636;SDS011;52327;42.622;23.316;2023-03-03T04:07:20;2.03;;;1.45;;
65636;SDS011;52327;42.622;23.316;2023-03-03T04:09:45;2.05;;;1.30;;
65636;SDS011;52327;42.622;23.316;2023-03-03T04:12:10;1.33;;;0.90;;
65636;SDS011;52327;42.622;23.316;2023-03-03T04:14:36;2.38;;;1.80;;
65636;SDS011;52327;42.622;23.316;2023-03-03T04:17:02;2.35;;;1.80;;
65636;SDS011;52327;42.622;23.316;2023-03-03T04:19:27;2.65;;;1.50;;
65636;SDS011;52327;42.622;23.316;2023-03-03T04:21:53;2.55;;;1.70;;
65636;SDS011;52327;42.622;23.316;2023-03-03T04:24:18;2.95;;;1.48;;
65636;SDS011;52327;42.622;23.316;2023-03-03T04:26:44;1.75;;;1.63;;
65636;SDS011;52327;42.622;23.316;2023-03-03T04:29:09;2.95;;;1.35;;
65636;SDS011;52327;42.622;23.316;2023-03-03T04:31:35;2.63;;;1.67;;
65636;SDS011;52327;42.622;23.316;2023-03-03T04:34:00;2.25;;;1.30;;
65636;SDS011;52327;42.622;23.316;2023-03-03T04:36:28;1.77;;;1.10;;
65636;SDS011;52327;42.622;23.316;2023-03-03T04:38:54;1.35;;;1.25;;
65636;SDS011;52327;42.622;23.316;2023-03-03T04:41:19;1.58;;;1.38;;
65636;SDS011;52327;42.622;23.316;2023-03-03T04:43:45;2.88;;;2.40;;
65636;SDS011;52327;42.622;23.316;2023-03-03T04:46:10;1.80;;;1.63;;
65636;SDS011;52327;42.622;23.316;2023-03-03T04:48:35;3.25;;;1.75;;
65636;SDS011;52327;42.622;23.316;2023-03-03T04:51:02;2.25;;;1.33;;
65636;SDS011;52327;42.622;23.316;2023-03-03T04:53:28;1.67;;;1.25;;
65636;SDS011;52327;42.622;23.316;2023-03-03T04:55:53;1.02;;;0.93;;
65636;SDS011;52327;42.622;23.316;2023-03-03T04:58:19;1.83;;;1.55;;
65636;SDS011;52327;42.622;23.316;2023-03-03T05:00:54;0.65;;;0.65;;
65636;SDS011;52327;42.622;23.316;2023-03-03T05:03:20;1.63;;;1.52;;
65636;SDS011;52327;42.622;23.316;2023-03-03T05:05:46;1.05;;;0.98;;
65636;SDS011;52327;42.622;23.316;2023-03-03T05:08:12;0.93;;;0.90;;
65636;SDS011;52327;42.622;23.316;2023-03-03T05:10:38;1.88;;;1.27;;
65636;SDS011;52327;42.622;23.316;2023-03-03T05:13:04;2.25;;;1.50;;
65636;SDS011;52327;42.622;23.316;2023-03-03T05:15:30;1.17;;;1.08;;
65636;SDS011;52327;42.622;23.316;2023-03-03T05:17:56;1.20;;;1.10;;
65636;SDS011;52327;42.622;23.316;2023-03-03T05:20:22;1.95;;;1.52;;
65636;SDS011;52327;42.622;23.316;2023-03-03T05:22:48;0.95;;;0.95;;
65636;SDS011;52327;42.622;23.316;2023-03-03T05:25:14;2.67;;;2.40;;
65636;SDS011;52327;42.622;23.316;2023-03-03T05:27:39;2.33;;;1.50;;
65636;SDS011;52327;42.622;23.316;2023-03-03T05:30:05;5.18;;;2.80;;
65636;SDS011;52327;42.622;23.316;2023-03-03T05:32:31;1.38;;;1.27;;
65636;SDS011;52327;42.622;23.316;2023-03-03T05:34:57;1.52;;;1.42;;
65636;SDS011;52327;42.622;23.316;2023-03-03T05:37:22;1.25;;;1.10;;
65636;SDS011;52327;42.622;23.316;2023-03-03T05:39:48;1.15;;;0.85;;
65636;SDS011;52327;42.622;23.316;2023-03-03T05:42:14;1.27;;;1.08;;
65636;SDS011;52327;42.622;23.316;2023-03-03T05:44:39;0.90;;;0.90;;
65636;SDS011;52327;42.622;23.316;2023-03-03T05:47:05;1.73;;;0.95;;
65636;SDS011;52327;42.622;23.316;2023-03-03T05:49:31;1.25;;;1.05;;
65636;SDS011;52327;42.622;23.316;2023-03-03T05:51:56;0.65;;;0.65;;
65636;SDS011;52327;42.622;23.316;2023-03-03T05:54:23;1.95;;;1.48;;
65636;SDS011;52327;42.622;23.316;2023-03-03T05:56:48;1.35;;;1.08;;
65636;SDS011;52327;42.622;23.316;2023-03-03T05:59:14;1.63;;;1.30;;
65636;SDS011;52327;42.622;23.316;2023-03-03T06:01:39;1.70;;;1.33;;
65636;SDS011;52327;42.622;23.316;2023-03-03T06:04:05;1.40;;;1.10;;
65636;SDS011;52327;42.622;23.316;2023-03-03T06:06:30;2.13;;;1.27;;
65636;SDS011;52327;42.622;23.316;2023-03-03T06:08:56;0.88;;;0.88;;
65636;SDS011;52327;42.622;23.316;2023-03-03T06:11:21;3.10;;;1.52;;
65636;SDS011;52327;42.622;23.316;2023-03-03T06:13:47;1.05;;;0.70;;
65636;SDS011;52327;42.622;23.316;2023-03-03T06:16:12;4.90;;;2.80;;
65636;SDS011;52327;42.622;23.316;2023-03-03T06:18:37;10.27;;;5.13;;
65636;SDS011;52327;42.622;23.316;2023-03-03T06:21:03;10.23;;;5.15;;
65636;SDS011;52327;42.622;23.316;2023-03-03T06:23:28;1.55;;;1.38;;
65636;SDS011;52327;42.622;23.316;2023-03-03T06:25:54;3.00;;;1.50;;
65636;SDS011;52327;42.622;23.316;2023-03-03T06:28:19;2.20;;;1.52;;
65636;SDS011;52327;42.622;23.316;2023-03-03T06:30:45;1.20;;;1.10;;
65636;SDS011;52327;42.622;23.316;2023-03-03T06:33:10;2.38;;;1.48;;
65636;SDS011;52327;42.622;23.316;2023-03-03T06:35:36;1.65;;;1.55;;
65636;SDS011;52327;42.622;23.316;2023-03-03T06:38:01;2.42;;;2.20;;
65636;SDS011;52327;42.622;23.316;2023-03-03T06:40:27;2.92;;;1.98;;
65636;SDS011;52327;42.622;23.316;2023-03-03T06:42:52;2.80;;;1.48;;
65636;SDS011;52327;42.622;23.316;2023-03-03T06:45:18;1.17;;;1.08;;
65636;SDS011;52327;42.622;23.316;2023-03-03T06:47:43;1.17;;;1.08;;
65636;SDS011;52327;42.622;23.316;2023-03-03T06:50:09;2.10;;;1.38;;
65636;SDS011;52327;42.622;23.316;2023-03-03T06:52:36;2.55;;;1.67;;
65636;SDS011;52327;42.622;23.316;2023-03-03T06:55:08;2.05;;;1.20;;
65636;SDS011;52327;42.622;23.316;2023-03-03T06:57:37;5.28;;;2.70;;
65636;SDS011;52327;42.622;23.316;2023-03-03T07:02:39;1.88;;;1.58;;
65636;SDS011;52327;42.622;23.316;2023-03-03T07:05:06;4.32;;;1.50;;
65636;SDS011;52327;42.622;23.316;2023-03-03T07:07:39;2.08;;;1.65;;
65636;SDS011;52327;42.622;23.316;2023-03-03T07:10:19;2.30;;;1.67;;
65636;SDS011;52327;42.622;23.316;2023-03-03T07:12:48;1.23;;;0.95;;
65636;SDS011;52327;42.622;23.316;2023-03-03T07:15:32;2.40;;;1.75;;
65636;SDS011;52327;42.622;23.316;2023-03-03T07:17:59;2.05;;;1.77;;
65636;SDS011;52327;42.622;23.316;2023-03-03T07:20:28;1.75;;;1.38;;
65636;SDS011;52327;42.622;23.316;2023-03-03T07:22:57;1.48;;;0.90;;
65636;SDS011;52327;42.622;23.316;2023-03-03T07:25:29;8.07;;;1.52;;
65636;SDS011;52327;42.622;23.316;2023-03-03T07:28:38;2.70;;;1.50;;
65636;SDS011;52327;42.622;23.316;2023-03-03T07:30:47;1.77;;;1.48;;
65636;SDS011;52327;42.622;23.316;2023-03-03T07:33:26;6.07;;;2.25;;
65636;SDS011;52327;42.622;23.316;2023-03-03T07:35:58;2.65;;;1.73;;
65636;SDS011;52327;42.622;23.316;2023-03-03T07:38:46;3.25;;;1.73;;
65636;SDS011;52327;42.622;23.316;2023-03-03T07:41:22;4.28;;;2.60;;
65636;SDS011;52327;42.622;23.316;2023-03-03T07:43:48;4.35;;;2.45;;
65636;SDS011;52327;42.622;23.316;2023-03-03T07:48:49;6.80;;;3.60;;
65636;SDS011;52327;42.622;23.316;2023-03-03T07:51:20;9.95;;;5.95;;
65636;SDS011;52327;42.622;23.316;2023-03-03T07:56:42;7.70;;;2.53;;
65636;SDS011;52327;42.622;23.316;2023-03-03T07:59:17;4.85;;;3.47;;
65636;SDS011;52327;42.622;23.316;2023-03-03T08:01:45;5.72;;;2.88;;
65636;SDS011;52327;42.622;23.316;2023-03-03T08:06:48;4.05;;;2.92;;
65636;SDS011;52327;42.622;23.316;2023-03-03T08:11:48;2.20;;;1.65;;
65636;SDS011;52327;42.622;23.316;2023-03-03T08:14:19;4.20;;;2.25;;
65636;SDS011;52327;42.622;23.316;2023-03-03T08:16:51;5.00;;;2.38;;
65636;SDS011;52327;42.622;23.316;2023-03-03T08:19:16;3.00;;;1.88;;
65636;SDS011;52327;42.622;23.316;2023-03-03T08:21:42;3.90;;;2.50;;
65636;SDS011;52327;42.622;23.316;2023-03-03T08:24:08;3.25;;;2.40;;
65636;SDS011;52327;42.622;23.316;2023-03-03T08:26:34;2.83;;;2.08;;
65636;SDS011;52327;42.622;23.316;2023-03-03T08:28:59;5.25;;;2.60;;
65636;SDS011;52327;42.622;23.316;2023-03-03T08:31:25;4.47;;;3.08;;
65636;SDS011;52327;42.622;23.316;2023-03-03T08:33:51;2.50;;;2.10;;
65636;SDS011;52327;42.622;23.316;2023-03-03T08:36:16;5.25;;;3.75;;
65636;SDS011;52327;42.622;23.316;2023-03-03T08:38:42;4.60;;;2.75;;
65636;SDS011;52327;42.622;23.316;2023-03-03T08:41:07;3.70;;;1.98;;
65636;SDS011;52327;42.622;23.316;2023-03-03T08:43:33;3.80;;;2.50;;
65636;SDS011;52327;42.622;23.316;2023-03-03T08:46:00;3.67;;;2.03;;
65636;SDS011;52327;42.622;23.316;2023-03-03T08:48:27;4.38;;;2.45;;
65636;SDS011;52327;42.622;23.316;2023-03-03T08:50:53;2.70;;;2.13;;
65636;SDS011;52327;42.622;23.316;2023-03-03T08:53:19;2.65;;;1.83;;
65636;SDS011;52327;42.622;23.316;2023-03-03T08:55:46;3.08;;;1.92;;
65636;SDS011;52327;42.622;23.316;2023-03-03T08:58:12;8.18;;;3.00;;
65636;SDS011;52327;42.622;23.316;2023-03-03T09:00:38;2.95;;;2.33;;
65636;SDS011;52327;42.622;23.316;2023-03-03T09:03:04;3.83;;;2.70;;
65636;SDS011;52327;42.622;23.316;2023-03-03T09:05:34;5.05;;;3.15;;
65636;SDS011;52327;42.622;23.316;2023-03-03T09:08:01;5.30;;;2.75;;
65636;SDS011;52327;42.622;23.316;2023-03-03T09:10:27;2.58;;;1.45;;
65636;SDS011;52327;42.622;23.316;2023-03-03T09:12:59;5.57;;;2.58;;
65636;SDS011;52327;42.622;23.316;2023-03-03T09:15:29;2.78;;;2.13;;
65636;SDS011;52327;42.622;23.316;2023-03-03T09:18:19;2.15;;;1.33;;
65636;SDS011;52327;42.622;23.316;2023-03-03T09:20:59;1.80;;;1.52;;
65636;SDS011;52327;42.622;23.316;2023-03-03T09:23:35;6.63;;;3.20;;
65636;SDS011;52327;42.622;23.316;2023-03-03T09:28:58;4.50;;;2.60;;
65636;SDS011;52327;42.622;23.316;2023-03-03T09:31:37;4.45;;;3.30;;
65636;SDS011;52327;42.622;23.316;2023-03-03T09:34:19;3.92;;;2.25;;
65636;SDS011;52327;42.622;23.316;2023-03-03T09:36:47;7.35;;;4.38;;
65636;SDS011;52327;42.622;23.316;2023-03-03T09:39:17;8.05;;;4.28;;
65636;SDS011;52327;42.622;23.316;2023-03-03T09:41:54;5.75;;;2.65;;
65636;SDS011;52327;42.622;23.316;2023-03-03T09:50:07;4.20;;;3.05;;
65636;SDS011;52327;42.622;23.316;2023-03-03T09:52:39;3.53;;;2.50;;
65636;SDS011;52327;42.622;23.316;2023-03-03T10:11:18;4.55;;;3.72;;
65636;SDS011;52327;42.622;23.316;2023-03-03T10:22:32;4.63;;;2.90;;
65636;SDS011;52327;42.622;23.316;2023-03-03T10:25:12;4.28;;;2.90;;
65636;SDS011;52327;42.622;23.316;2023-03-03T10:30:58;3.13;;;2.08;;
65636;SDS011;52327;42.622;23.316;2023-03-03T10:33:42;2.75;;;2.28;;
65636;SDS011;52327;42.622;23.316;2023-03-03T10:57:25;7.18;;;3.97;;
65636;SDS011;52327;42.622;23.316;2023-03-03T11:00:25;7.75;;;3.72;;
65636;SDS011;52327;42.622;23.316;2023-03-03T11:08:19;4.57;;;3.33;;
65636;SDS011;52327;42.622;23.316;2023-03-03T11:16:33;9.73;;;4.95;;
65636;SDS011;52327;42.622;23.316;2023-03-03T11:24:30;5.78;;;3.47;;
65636;SDS011;52327;42.622;23.316;2023-03-03T11:27:26;3.95;;;2.47;;
65636;SDS011;52327;42.622;23.316;2023-03-03T11:30:17;5.57;;;3.30;;
65636;SDS011;52327;42.622;23.316;2023-03-03T11:35:40;7.45;;;3.90;;
65636;SDS011;52327;42.622;23.316;2023-03-03T11:40:48;5.30;;;3.78;;
65636;SDS011;52327;42.622;23.316;2023-03-03T11:43:20;5.97;;;3.70;;
65636;SDS011;52327;42.622;23.316;2023-03-03T11:45:54;7.82;;;4.32;;
65636;SDS011;52327;42.622;23.316;2023-03-03T11:48:41;11.85;;;5.60;;
65636;SDS011;52327;42.622;23.316;2023-03-03T11:51:19;11.32;;;5.43;;
65636;SDS011;52327;42.622;23.316;2023-03-03T11:53:57;4.68;;;3.40;;
65636;SDS011;52327;42.622;23.316;2023-03-03T12:01:33;7.05;;;5.47;;
65636;SDS011;52327;42.622;23.316;2023-03-03T12:04:03;9.57;;;5.65;;
65636;SDS011;52327;42.622;23.316;2023-03-03T12:09:39;7.28;;;5.00;;
65636;SDS011;52327;42.622;23.316;2023-03-03T12:12:32;10.30;;;6.03;;
65636;SDS011;52327;42.622;23.316;2023-03-03T12:25:56;8.57;;;4.45;;
65636;SDS011;52327;42.622;23.316;2023-03-03T12:28:33;7.15;;;4.68;;
65636;SDS011;52327;42.622;23.316;2023-03-03T12:33:49;5.93;;;3.55;;
65636;SDS011;52327;42.622;23.316;2023-03-03T12:36:47;6.13;;;3.80;;
65636;SDS011;52327;42.622;23.316;2023-03-03T12:42:05;8.25;;;4.78;;
65636;SDS011;52327;42.622;23.316;2023-03-03T12:47:14;8.68;;;5.57;;
65636;SDS011;52327;42.622;23.316;2023-03-03T12:50:29;8.20;;;5.28;;
65636;SDS011;52327;42.622;23.316;2023-03-03T13:04:09;5.60;;;2.50;;
65636;SDS011;52327;42.622;23.316;2023-03-03T13:07:40;3.67;;;2.30;;
65636;SDS011;52327;42.622;23.316;2023-03-03T13:15:43;4.63;;;3.45;;
65636;SDS011;52327;42.622;23.316;2023-03-03T13:21:32;6.15;;;2.92;;
65636;SDS011;52327;42.622;23.316;2023-03-03T13:24:10;8.27;;;4.63;;
65636;SDS011;52327;42.622;23.316;2023-03-03T13:26:51;6.40;;;4.70;;
65636;SDS011;52327;42.622;23.316;2023-03-03T13:32:21;10.48;;;5.90;;
65636;SDS011;52327;42.622;23.316;2023-03-03T13:38:12;6.90;;;4.90;;
65636;SDS011;52327;42.622;23.316;2023-03-03T13:40:43;9.25;;;5.72;;
65636;SDS011;52327;42.622;23.316;2023-03-03T13:43:17;5.20;;;4.47;;
65636;SDS011;52327;42.622;23.316;2023-03-03T13:45:58;6.30;;;4.40;;
65636;SDS011;52327;42.622;23.316;2023-03-03T13:53:52;9.55;;;5.00;;
65636;SDS011;52327;42.622;23.316;2023-03-03T13:56:53;11.10;;;4.63;;
65636;SDS011;52327;42.622;23.316;2023-03-03T14:04:52;11.52;;;5.20;;
65636;SDS011;52327;42.622;23.316;2023-03-03T14:07:35;8.48;;;4.85;;
65636;SDS011;52327;42.622;23.316;2023-03-03T14:10:23;7.65;;;4.82;;
65636;SDS011;52327;42.622;23.316;2023-03-03T14:13:04;6.20;;;4.13;;
65636;SDS011;52327;42.622;23.316;2023-03-03T14:21:04;10.98;;;4.95;;
65636;SDS011;52327;42.622;23.316;2023-03-03T14:26:21;5.25;;;3.58;;
65636;SDS011;52327;42.622;23.316;2023-03-03T14:28:47;7.15;;;4.55;;
65636;SDS011;52327;42.622;23.316;2023-03-03T14:33:42;7.50;;;4.78;;
65636;SDS011;52327;42.622;23.316;2023-03-03T14:36:12;8.50;;;5.03;;
65636;SDS011;52327;42.622;23.316;2023-03-03T14:38:40;6.00;;;3.20;;
65636;SDS011;52327;42.622;23.316;2023-03-03T14:41:21;9.20;;;4.50;;
65636;SDS011;52327;42.622;23.316;2023-03-03T14:44:01;7.93;;;5.10;;
65636;SDS011;52327;42.622;23.316;2023-03-03T14:49:45;9.50;;;5.93;;
65636;SDS011;52327;42.622;23.316;2023-03-03T14:55:26;6.20;;;4.35;;
65636;SDS011;52327;42.622;23.316;2023-03-03T14:57:51;7.25;;;4.13;;
65636;SDS011;52327;42.622;23.316;2023-03-03T15:05:18;7.22;;;4.30;;
65636;SDS011;52327;42.622;23.316;2023-03-03T15:07:44;9.55;;;5.15;;
65636;SDS011;52327;42.622;23.316;2023-03-03T15:10:11;7.88;;;5.00;;
65636;SDS011;52327;42.622;23.316;2023-03-03T15:12:50;7.13;;;5.53;;
65636;SDS011;52327;42.622;23.316;2023-03-03T15:15:20;8.80;;;5.18;;
65636;SDS011;52327;42.622;23.316;2023-03-03T15:26:14;9.88;;;6.10;;
65636;SDS011;52327;42.622;23.316;2023-03-03T15:55:49;10.90;;;6.88;;
65636;SDS011;52327;42.622;23.316;2023-03-03T16:01:25;9.30;;;6.53;;
65636;SDS011;52327;42.622;23.316;2023-03-03T16:03:58;12.63;;;7.05;;
65636;SDS011;52327;42.622;23.316;2023-03-03T16:21:00;12.48;;;6.45;;
65636;SDS011;52327;42.622;23.316;2023-03-03T16:29:02;7.75;;;4.10;;
65636;SDS011;52327;42.622;23.316;2023-03-03T16:31:36;13.15;;;8.13;;
65636;SDS011;52327;42.622;23.316;2023-03-03T16:34:20;11.10;;;5.85;;
65636;SDS011;52327;42.622;23.316;2023-03-03T16:39:35;9.02;;;4.72;;
65636;SDS011;52327;42.622;23.316;2023-03-03T16:45:08;17.70;;;10.70;;
65636;SDS011;52327;42.622;23.316;2023-03-03T17:04:39;22.33;;;10.20;;
65636;SDS011;52327;42.622;23.316;2023-03-03T17:12:49;11.57;;;5.57;;
65636;SDS011;52327;42.622;23.316;2023-03-03T17:21:07;7.82;;;4.95;;
65636;SDS011;52327;42.622;23.316;2023-03-03T17:26:30;10.82;;;7.05;;
65636;SDS011;52327;42.622;23.316;2023-03-03T17:45:11;11.18;;;5.30;;
65636;SDS011;52327;42.622;23.316;2023-03-03T17:48:12;7.75;;;5.53;;
65636;SDS011;52327;42.622;23.316;2023-03-03T17:53:29;8.65;;;5.68;;
65636;SDS011;52327;42.622;23.316;2023-03-03T18:01:47;5.00;;;3.47;;
65636;SDS011;52327;42.622;23.316;2023-03-03T18:12:52;6.63;;;5.40;;
65636;SDS011;52327;42.622;23.316;2023-03-03T18:24:12;5.03;;;4.40;;
65636;SDS011;52327;42.622;23.316;2023-03-03T18:26:40;9.90;;;5.15;;
65636;SDS011;52327;42.622;23.316;2023-03-03T18:39:40;5.80;;;3.78;;
65636;SDS011;52327;42.622;23.316;2023-03-03T18:42:57;4.88;;;3.67;;
65636;SDS011;52327;42.622;23.316;2023-03-03T18:50:39;12.65;;;4.15;;
65636;SDS011;52327;42.622;23.316;2023-03-03T18:53:29;7.40;;;3.25;;
65636;SDS011;52327;42.622;23.316;2023-03-03T18:55:58;20.00;;;12.88;;
65636;SDS011;52327;42.622;23.316;2023-03-03T19:04:01;4.65;;;3.65;;
65636;SDS011;52327;42.622;23.316;2023-03-03T19:09:00;6.25;;;3.72;;
65636;SDS011;52327;42.622;23.316;2023-03-03T19:23:20;9.57;;;5.15;;
65636;SDS011;52327;42.622;23.316;2023-03-03T19:25:29;6.18;;;4.05;;
65636;SDS011;52327;42.622;23.316;2023-03-03T19:30:35;8.02;;;4.60;;
65636;SDS011;52327;42.622;23.316;2023-03-03T19:33:06;11.23;;;5.10;;
65636;SDS011;52327;42.622;23.316;2023-03-03T19:36:13;8.45;;;6.28;;
65636;SDS011;52327;42.622;23.316;2023-03-03T19:46:54;7.05;;;4.40;;
65636;SDS011;52327;42.622;23.316;2023-03-03T19:49:46;9.13;;;4.88;;
65636;SDS011;52327;42.622;23.316;2023-03-03T20:08:22;8.13;;;4.40;;
65636;SDS011;52327;42.622;23.316;2023-03-03T20:11:09;9.40;;;5.45;;
65636;SDS011;52327;42.622;23.316;2023-03-03T20:16:36;7.72;;;3.88;;
65636;SDS011;52327;42.622;23.316;2023-03-03T20:32:53;13.35;;;4.05;;
65636;SDS011;52327;42.622;23.316;2023-03-03T20:41:03;7.65;;;4.13;;
65636;SDS011;52327;42.622;23.316;2023-03-03T20:49:32;9.15;;;4.93;;
65636;SDS011;52327;42.622;23.316;2023-03-03T20:52:06;11.88;;;5.28;;
65636;SDS011;52327;42.622;23.316;2023-03-03T20:57:52;4.55;;;3.60;;
65636;SDS011;52327;42.622;23.316;2023-03-03T21:11:20;6.93;;;4.72;;
65636;SDS011;52327;42.622;23.316;2023-03-03T21:13:51;6.72;;;4.78;;
65636;SDS011;52327;42.622;23.316;2023-03-03T21:19:00;7.50;;;5.43;;
65636;SDS011;52327;42.622;23.316;2023-03-03T21:21:31;6.43;;;4.78;;
65636;SDS011;52327;42.622;23.316;2023-03-03T21:24:01;7.63;;;4.97;;
65636;SDS011;52327;42.622;23.316;2023-03-03T21:29:48;7.30;;;4.80;;
65636;SDS011;52327;42.622;23.316;2023-03-03T21:32:40;6.57;;;4.43;;
65636;SDS011;52327;42.622;23.316;2023-03-03T21:35:11;5.20;;;3.95;;
65636;SDS011;52327;42.622;23.316;2023-03-03T21:37:41;8.88;;;4.75;;
65636;SDS011;52327;42.622;23.316;2023-03-03T21:40:13;4.45;;;3.13;;
65636;SDS011;52327;42.622;23.316;2023-03-03T21:42:44;6.65;;;3.53;;
65636;SDS011;52327;42.622;23.316;2023-03-03T21:45:11;4.45;;;2.92;;
65636;SDS011;52327;42.622;23.316;2023-03-03T21:47:38;9.93;;;5.35;;
65636;SDS011;52327;42.622;23.316;2023-03-03T21:50:04;6.57;;;3.72;;
65636;SDS011;52327;42.622;23.316;2023-03-03T21:52:29;9.20;;;5.30;;
65636;SDS011;52327;42.622;23.316;2023-03-03T21:54:55;7.90;;;4.45;;
65636;SDS011;52327;42.622;23.316;2023-03-03T21:57:20;7.65;;;3.92;;
65636;SDS011;52327;42.622;23.316;2023-03-03T21:59:46;4.82;;;2.35;;
65636;SDS011;52327;42.622;23.316;2023-03-03T22:02:11;5.63;;;2.47;;
65636;SDS011;52327;42.622;23.316;2023-03-03T22:04:37;4.28;;;2.38;;
65636;SDS011;52327;42.622;23.316;2023-03-03T22:07:02;4.78;;;2.78;;
65636;SDS011;52327;42.622;23.316;2023-03-03T22:09:28;5.72;;;2.67;;
65636;SDS011;52327;42.622;23.316;2023-03-03T22:11:53;6.13;;;2.67;;
65636;SDS011;52327;42.622;23.316;2023-03-03T22:14:19;7.72;;;4.45;;
65636;SDS011;52327;42.622;23.316;2023-03-03T22:16:44;4.72;;;3.20;;